createdAt,value
2022-10-22T00:03:16.947Z,99.90
2022-10-22T00:06:48.082Z,99.90
2022-10-22T00:10:19.971Z,99.90
2022-10-22T00:13:52.014Z,99.90
2022-10-22T00:17:14.174Z,99.80
2022-10-22T00:20:45.551Z,99.90
2022-10-22T00:24:17.158Z,99.90
2022-10-22T00:27:49.246Z,99.90
2022-10-22T00:31:31.840Z,99.90
2022-10-22T00:35:11.726Z,99.90
2022-10-22T00:38:42.832Z,99.90
2022-10-22T00:42:15.450Z,99.90
2022-10-22T00:45:57.430Z,99.90
2022-10-22T00:49:31.052Z,99.90
2022-10-22T00:53:02.968Z,99.90
2022-10-22T00:56:35.234Z,99.90
2022-10-22T01:00:06.680Z,99.90
2022-10-22T01:03:38.581Z,99.90
2022-10-22T01:07:10.694Z,99.90
2022-10-22T01:11:09.179Z,99.90
2022-10-22T01:28:00.976Z,99.90
2022-10-22T01:31:33.478Z,99.90
2022-10-22T01:35:20.670Z,99.90
2022-10-22T01:38:55.098Z,99.90
2022-10-22T01:42:26.535Z,99.90
2022-10-22T01:46:02.640Z,99.90
2022-10-22T01:50:13.917Z,99.90
2022-10-22T02:03:45.909Z,99.90
2022-10-22T02:07:21.279Z,99.90
2022-10-22T02:10:55.970Z,99.90
2022-10-22T02:14:39.051Z,99.90
2022-10-22T02:18:13.999Z,99.90
2022-10-22T02:21:45.070Z,99.90
2022-10-22T02:25:16.649Z,99.90
2022-10-22T02:40:02.007Z,99.90
2022-10-22T03:08:46.599Z,99.90
2022-10-22T03:12:17.486Z,99.90
2022-10-22T03:15:48.611Z,99.90
2022-10-22T03:19:19.294Z,99.90
2022-10-22T03:23:02.847Z,99.90
2022-10-22T03:26:34.442Z,99.90
2022-10-22T03:30:08.149Z,99.90
2022-10-22T03:33:39.136Z,99.90
2022-10-22T03:37:11.225Z,99.90
2022-10-22T03:40:43.162Z,99.90
2022-10-22T03:44:05.748Z,99.90
2022-10-22T03:47:36.818Z,99.90
2022-10-22T03:51:08.133Z,99.90
2022-10-22T03:54:40.123Z,99.90
2022-10-22T03:58:11.534Z,99.70
2022-10-22T04:01:43.501Z,99.80
2022-10-22T04:05:06.251Z,99.80
2022-10-22T04:08:37.369Z,99.90
2022-10-22T04:12:08.616Z,99.90
2022-10-22T04:15:39.699Z,99.90
2022-10-22T04:19:11.303Z,99.90
2022-10-22T04:22:42.848Z,99.90
2022-10-22T04:26:25.700Z,99.90
2022-10-22T04:29:56.471Z,99.90
2022-10-22T04:33:27.481Z,99.90
2022-10-22T04:36:59.076Z,99.90
2022-10-22T04:40:30.186Z,99.90
2022-10-22T04:44:02.709Z,99.90
2022-10-22T04:47:33.672Z,99.90
2022-10-22T04:51:06.510Z,99.90
2022-10-22T04:54:37.612Z,99.90
2022-10-22T04:58:09.308Z,99.00
2022-10-22T05:02:05.607Z,99.90
2022-10-22T05:05:36.646Z,99.00
2022-10-22T05:09:11.675Z,97.10
2022-10-22T05:12:42.782Z,97.00
2022-10-22T05:16:13.243Z,96.90
2022-10-22T05:19:47.445Z,98.00
2022-10-22T05:23:18.054Z,97.10
2022-10-22T05:26:50.899Z,97.10
2022-10-22T05:30:22.510Z,96.70
2022-10-22T05:33:54.011Z,97.20
2022-10-22T05:37:24.946Z,96.50
2022-10-22T05:40:56.103Z,96.70
2022-10-22T05:44:29.589Z,97.50
2022-10-22T05:48:00.645Z,96.70
2022-10-22T05:51:33.420Z,95.90
2022-10-22T05:55:04.420Z,96.40
2022-10-22T05:58:35.399Z,95.60
2022-10-22T06:02:08.543Z,95.80
2022-10-22T06:05:39.631Z,96.50
2022-10-22T06:09:13.705Z,96.30
2022-10-22T06:12:44.585Z,95.50
2022-10-22T06:16:15.733Z,96.00
2022-10-22T06:19:49.191Z,95.70
2022-10-22T06:23:20.265Z,95.80
2022-10-22T06:26:51.071Z,95.20
2022-10-22T06:30:22.288Z,95.20
2022-10-22T06:33:53.845Z,95.10
2022-10-22T06:37:24.834Z,95.20
2022-10-22T06:40:55.766Z,94.90
2022-10-22T06:44:30.377Z,95.40
2022-10-22T06:48:01.525Z,95.00
2022-10-22T06:51:34.102Z,94.70
2022-10-22T06:55:05.166Z,94.60
2022-10-22T06:58:35.945Z,94.90
2022-10-22T07:02:09.083Z,94.60
2022-10-22T07:05:42.926Z,94.50
2022-10-22T11:41:54.782Z,84.90
2022-10-22T11:54:58.554Z,87.70
2022-10-22T12:12:26.522Z,90.70
2022-10-22T12:16:27.228Z,91.80
2022-10-22T12:24:23.835Z,91.60
2022-10-22T13:24:37.115Z,92.80
2022-10-22T13:28:19.956Z,93.30
2022-10-22T13:32:33.296Z,93.40
2022-10-22T13:36:06.375Z,92.20
2022-10-22T13:39:49.394Z,92.90
2022-10-22T13:43:20.329Z,93.40
2022-10-22T13:46:52.191Z,93.50
2022-10-22T13:50:16.528Z,93.50
2022-10-22T13:54:11.234Z,92.90
2022-10-22T13:57:45.539Z,93.60
2022-10-22T14:01:32.114Z,93.70
2022-10-22T14:05:04.234Z,93.90
2022-10-22T14:08:46.246Z,94.00
2022-10-22T14:12:27.853Z,93.50
2022-10-22T14:16:00.383Z,94.20
2022-10-22T14:19:35.332Z,94.10
2022-10-22T14:23:07.854Z,94.20
2022-10-22T14:26:50.814Z,94.50
2022-10-22T14:30:32.943Z,94.60
2022-10-22T14:34:13.474Z,94.90
2022-10-22T14:37:55.763Z,95.10
2022-10-22T14:41:38.983Z,95.10
2022-10-22T14:45:10.102Z,95.30
2022-10-22T14:48:41.050Z,95.60
2022-10-22T14:52:14.842Z,95.90
2022-10-22T14:55:47.300Z,96.20
2022-10-22T14:59:18.073Z,96.80
2022-10-22T15:02:49.649Z,97.10
2022-10-22T15:06:21.720Z,97.70
2022-10-22T19:43:04.522Z,99.90
2022-10-22T19:46:37.011Z,97.90
2022-10-22T19:50:08.441Z,99.60
2022-10-22T19:53:39.813Z,99.90
2022-10-22T19:57:12.142Z,99.90
2022-10-22T20:00:44.746Z,99.90
2022-10-22T20:04:16.330Z,99.90
2022-10-22T20:07:47.373Z,99.90
2022-10-22T20:11:19.927Z,99.90
2022-10-22T20:14:51.608Z,99.90
2022-10-22T20:18:22.560Z,99.90
2022-10-22T20:21:54.694Z,99.90
2022-10-22T20:25:34.876Z,99.90
2022-10-22T20:29:06.405Z,99.90
2022-10-22T20:32:37.446Z,99.90
2022-10-22T20:36:22.686Z,99.90
2022-10-22T20:39:53.510Z,99.90
2022-10-22T20:43:24.592Z,99.90
2022-10-22T20:47:06.092Z,99.90
2022-10-22T20:50:38.713Z,99.90
2022-10-22T20:54:09.790Z,99.90
2022-10-22T20:57:41.386Z,99.90
